Plato, Missouri
Current Conditions -  °F | °C
As of 6:58 AM on Saturday 25 Oct 2014 (Local Time) from KTBN Reporting Station
Clear Clear  
Wind Chill: 58°   Ceiling: Unl
Heat Index: 58°   Visibility: 10mi
Dew Point: 58°   Wind: 3mph
Humidity: 100%   Direction: 230°SW
Pressure: 30.05"   Gusts: NA
Location:  37.5°N, 92.22°W
Report Text: KTBN 251158Z AUTO 23003KT 10SM CLR 14/14 A3005 RMK AO2 SLP174 T01430143 10158 20143 52005
Loading
Personal Weather Stations






























Interactive Weather Map
Tropical Storm Tracking
New forecast layout! Learn more

10-Day Weather Forecast

Advertisements
Track Severe Weather on mobile